sensor_id;sensor_type;location;lat;lon;timestamp;temperature;humidity
36552;DHT22;22559;54.176;12.102;2023-03-03T00:01:33;1.60;99.90
36552;DHT22;22559;54.176;12.102;2023-03-03T00:03:59;1.60;99.90
36552;DHT22;22559;54.176;12.102;2023-03-03T00:06:25;1.60;99.90
36552;DHT22;22559;54.176;12.102;2023-03-03T00:08:51;1.70;99.90
36552;DHT22;22559;54.176;12.102;2023-03-03T00:11:18;1.70;99.90
36552;DHT22;22559;54.176;12.102;2023-03-03T00:16:31;1.70;99.90
36552;DHT22;22559;54.176;12.102;2023-03-03T00:18:58;1.80;99.90
36552;DHT22;22559;54.176;12.102;2023-03-03T00:21:40;1.80;99.90
36552;DHT22;22559;54.176;12.102;2023-03-03T00:26:40;1.90;99.90
36552;DHT22;22559;54.176;12.102;2023-03-03T00:31:54;1.90;99.90
36552;DHT22;22559;54.176;12.102;2023-03-03T00:34:26;1.90;99.90
36552;DHT22;22559;54.176;12.102;2023-03-03T00:36:56;1.90;99.90
36552;DHT22;22559;54.176;12.102;2023-03-03T00:41:51;2.00;99.90
36552;DHT22;22559;54.176;12.102;2023-03-03T00:44:38;2.00;99.90
36552;DHT22;22559;54.176;12.102;2023-03-03T00:49:59;2.00;99.90
36552;DHT22;22559;54.176;12.102;2023-03-03T00:52:46;2.10;99.90
36552;DHT22;22559;54.176;12.102;2023-03-03T00:55:17;2.20;99.90
36552;DHT22;22559;54.176;12.102;2023-03-03T00:57:43;2.10;99.90
36552;DHT22;22559;54.176;12.102;2023-03-03T01:00:13;2.10;99.90
36552;DHT22;22559;54.176;12.102;2023-03-03T01:02:39;2.20;99.90
36552;DHT22;22559;54.176;12.102;2023-03-03T01:05:05;2.20;99.90
36552;DHT22;22559;54.176;12.102;2023-03-03T01:07:30;2.10;99.90
36552;DHT22;22559;54.176;12.102;2023-03-03T01:09:56;2.20;99.90
36552;DHT22;22559;54.176;12.102;2023-03-03T01:12:22;2.20;99.90
36552;DHT22;22559;54.176;12.102;2023-03-03T01:14:48;2.20;99.90
36552;DHT22;22559;54.176;12.102;2023-03-03T01:17:17;2.20;99.90
36552;DHT22;22559;54.176;12.102;2023-03-03T01:19:43;2.20;99.90
36552;DHT22;22559;54.176;12.102;2023-03-03T01:22:08;2.20;99.90
36552;DHT22;22559;54.176;12.102;2023-03-03T01:24:34;2.10;99.90
36552;DHT22;22559;54.176;12.102;2023-03-03T01:26:59;2.10;99.90
36552;DHT22;22559;54.176;12.102;2023-03-03T01:29:25;2.10;99.90
36552;DHT22;22559;54.176;12.102;2023-03-03T01:31:51;2.10;99.90
36552;DHT22;22559;54.176;12.102;2023-03-03T01:34:17;2.10;99.90
36552;DHT22;22559;54.176;12.102;2023-03-03T01:36:42;2.00;99.90
36552;DHT22;22559;54.176;12.102;2023-03-03T01:39:09;2.00;99.90
36552;DHT22;22559;54.176;12.102;2023-03-03T01:41:35;1.90;99.90
36552;DHT22;22559;54.176;12.102;2023-03-03T01:44:01;1.90;99.90
36552;DHT22;22559;54.176;12.102;2023-03-03T01:48:56;1.90;99.90
36552;DHT22;22559;54.176;12.102;2023-03-03T01:51:47;1.90;99.90
36552;DHT22;22559;54.176;12.102;2023-03-03T01:54:27;1.90;99.90
36552;DHT22;22559;54.176;12.102;2023-03-03T01:56:58;1.80;99.90
36552;DHT22;22559;54.176;12.102;2023-03-03T01:59:28;1.70;99.90
36552;DHT22;22559;54.176;12.102;2023-03-03T02:01:56;1.80;99.90
36552;DHT22;22559;54.176;12.102;2023-03-03T02:04:22;1.80;99.90
36552;DHT22;22559;54.176;12.102;2023-03-03T02:06:56;1.70;99.90
36552;DHT22;22559;54.176;12.102;2023-03-03T02:12:02;1.80;99.90
36552;DHT22;22559;54.176;12.102;2023-03-03T02:14:30;1.70;99.90
36552;DHT22;22559;54.176;12.102;2023-03-03T02:16:55;1.70;99.90
36552;DHT22;22559;54.176;12.102;2023-03-03T02:21:51;1.60;99.90
36552;DHT22;22559;54.176;12.102;2023-03-03T02:24:34;1.50;99.90
36552;DHT22;22559;54.176;12.102;2023-03-03T02:27:02;1.50;99.90
36552;DHT22;22559;54.176;12.102;2023-03-03T02:29:27;1.50;99.90
36552;DHT22;22559;54.176;12.102;2023-03-03T02:31:53;1.50;99.90
36552;DHT22;22559;54.176;12.102;2023-03-03T02:34:19;1.50;99.90
36552;DHT22;22559;54.176;12.102;2023-03-03T02:36:44;1.50;99.90
36552;DHT22;22559;54.176;12.102;2023-03-03T02:44:14;1.40;99.90
36552;DHT22;22559;54.176;12.102;2023-03-03T02:46:43;1.40;99.90
36552;DHT22;22559;54.176;12.102;2023-03-03T02:49:11;1.40;99.90
36552;DHT22;22559;54.176;12.102;2023-03-03T02:51:38;1.30;99.90
36552;DHT22;22559;54.176;12.102;2023-03-03T02:54:04;1.30;99.90
36552;DHT22;22559;54.176;12.102;2023-03-03T02:56:30;1.30;99.90
36552;DHT22;22559;54.176;12.102;2023-03-03T02:58:56;1.40;99.90
36552;DHT22;22559;54.176;12.102;2023-03-03T03:01:22;1.40;99.90
36552;DHT22;22559;54.176;12.102;2023-03-03T03:03:47;1.40;99.90
36552;DHT22;22559;54.176;12.102;2023-03-03T03:06:14;1.40;99.90
36552;DHT22;22559;54.176;12.102;2023-03-03T03:08:40;1.40;99.90
36552;DHT22;22559;54.176;12.102;2023-03-03T03:11:05;1.30;99.90
36552;DHT22;22559;54.176;12.102;2023-03-03T03:13:31;1.30;99.90
36552;DHT22;22559;54.176;12.102;2023-03-03T03:15:58;1.30;99.90
36552;DHT22;22559;54.176;12.102;2023-03-03T03:18:24;1.30;99.90
36552;DHT22;22559;54.176;12.102;2023-03-03T03:20:50;1.30;99.90
36552;DHT22;22559;54.176;12.102;2023-03-03T03:23:17;1.30;99.90
36552;DHT22;22559;54.176;12.102;2023-03-03T03:25:43;1.30;99.90
36552;DHT22;22559;54.176;12.102;2023-03-03T03:28:14;1.30;99.90
36552;DHT22;22559;54.176;12.102;2023-03-03T03:30:41;1.30;99.90
36552;DHT22;22559;54.176;12.102;2023-03-03T03:33:07;1.20;99.90
36552;DHT22;22559;54.176;12.102;2023-03-03T03:35:33;1.20;99.90
36552;DHT22;22559;54.176;12.102;2023-03-03T03:38:00;1.10;99.90
36552;DHT22;22559;54.176;12.102;2023-03-03T03:40:26;1.00;99.90
36552;DHT22;22559;54.176;12.102;2023-03-03T03:42:54;1.00;99.90
36552;DHT22;22559;54.176;12.102;2023-03-03T03:45:20;1.00;99.90
36552;DHT22;22559;54.176;12.102;2023-03-03T03:47:46;1.00;99.90
36552;DHT22;22559;54.176;12.102;2023-03-03T03:50:12;1.00;99.90
36552;DHT22;22559;54.176;12.102;2023-03-03T03:52:38;0.90;99.90
36552;DHT22;22559;54.176;12.102;2023-03-03T03:55:04;0.90;99.90
36552;DHT22;22559;54.176;12.102;2023-03-03T03:57:30;0.80;99.90
36552;DHT22;22559;54.176;12.102;2023-03-03T03:59:55;0.80;99.90
36552;DHT22;22559;54.176;12.102;2023-03-03T04:02:21;0.80;99.90
36552;DHT22;22559;54.176;12.102;2023-03-03T04:04:47;0.80;99.90
36552;DHT22;22559;54.176;12.102;2023-03-03T04:07:12;0.80;99.90
36552;DHT22;22559;54.176;12.102;2023-03-03T04:09:38;0.80;99.90
36552;DHT22;22559;54.176;12.102;2023-03-03T04:12:04;0.70;99.90
36552;DHT22;22559;54.176;12.102;2023-03-03T04:14:30;0.70;99.90
36552;DHT22;22559;54.176;12.102;2023-03-03T04:16:55;0.60;99.90
36552;DHT22;22559;54.176;12.102;2023-03-03T04:19:21;0.60;99.90
36552;DHT22;22559;54.176;12.102;2023-03-03T04:21:47;0.60;99.90
36552;DHT22;22559;54.176;12.102;2023-03-03T04:24:13;0.50;99.90
36552;DHT22;22559;54.176;12.102;2023-03-03T04:26:39;0.50;99.90
36552;DHT22;22559;54.176;12.102;2023-03-03T04:29:05;0.50;99.90
36552;DHT22;22559;54.176;12.102;2023-03-03T04:31:31;0.50;99.90
36552;DHT22;22559;54.176;12.102;2023-03-03T04:33:56;0.40;99.90
36552;DHT22;22559;54.176;12.102;2023-03-03T04:36:22;0.40;99.90
36552;DHT22;22559;54.176;12.102;2023-03-03T04:38:48;0.40;99.90
36552;DHT22;22559;54.176;12.102;2023-03-03T04:41:14;0.40;99.90
36552;DHT22;22559;54.176;12.102;2023-03-03T04:43:40;0.40;99.90
36552;DHT22;22559;54.176;12.102;2023-03-03T04:46:06;0.40;99.90
36552;DHT22;22559;54.176;12.102;2023-03-03T04:48:32;0.40;99.90
36552;DHT22;22559;54.176;12.102;2023-03-03T04:50:57;0.40;99.90
36552;DHT22;22559;54.176;12.102;2023-03-03T04:53:23;0.30;99.90
36552;DHT22;22559;54.176;12.102;2023-03-03T04:55:50;0.30;99.90
36552;DHT22;22559;54.176;12.102;2023-03-03T04:58:16;0.20;99.90
36552;DHT22;22559;54.176;12.102;2023-03-03T05:00:44;0.20;99.90
36552;DHT22;22559;54.176;12.102;2023-03-03T05:03:11;0.20;99.90
36552;DHT22;22559;54.176;12.102;2023-03-03T05:05:37;0.20;99.90
36552;DHT22;22559;54.176;12.102;2023-03-03T05:08:03;0.20;99.90
36552;DHT22;22559;54.176;12.102;2023-03-03T05:10:29;0.20;99.90
36552;DHT22;22559;54.176;12.102;2023-03-03T05:12:54;0.20;99.90
36552;DHT22;22559;54.176;12.102;2023-03-03T05:15:20;0.20;99.90
36552;DHT22;22559;54.176;12.102;2023-03-03T05:17:46;0.20;99.90
36552;DHT22;22559;54.176;12.102;2023-03-03T05:20:12;0.20;99.90
36552;DHT22;22559;54.176;12.102;2023-03-03T05:22:38;0.20;99.90
36552;DHT22;22559;54.176;12.102;2023-03-03T05:25:04;0.30;99.90
36552;DHT22;22559;54.176;12.102;2023-03-03T05:27:30;0.30;99.90
36552;DHT22;22559;54.176;12.102;2023-03-03T05:29:56;0.30;99.90
36552;DHT22;22559;54.176;12.102;2023-03-03T05:32:22;0.30;99.90
36552;DHT22;22559;54.176;12.102;2023-03-03T05:34:47;0.30;99.90
36552;DHT22;22559;54.176;12.102;2023-03-03T05:37:13;0.30;99.90
36552;DHT22;22559;54.176;12.102;2023-03-03T05:39:40;0.40;99.90
36552;DHT22;22559;54.176;12.102;2023-03-03T05:42:05;0.40;99.90
36552;DHT22;22559;54.176;12.102;2023-03-03T05:44:31;0.50;99.90
36552;DHT22;22559;54.176;12.102;2023-03-03T05:46:57;0.50;99.90
36552;DHT22;22559;54.176;12.102;2023-03-03T05:49:24;0.50;99.90
36552;DHT22;22559;54.176;12.102;2023-03-03T05:51:49;0.50;99.90
36552;DHT22;22559;54.176;12.102;2023-03-03T05:54:15;0.60;99.90
36552;DHT22;22559;54.176;12.102;2023-03-03T05:56:40;0.60;99.90
36552;DHT22;22559;54.176;12.102;2023-03-03T05:59:06;0.60;99.90
36552;DHT22;22559;54.176;12.102;2023-03-03T06:01:32;0.60;99.90
36552;DHT22;22559;54.176;12.102;2023-03-03T06:03:58;0.60;99.90
36552;DHT22;22559;54.176;12.102;2023-03-03T06:06:23;0.60;99.90
36552;DHT22;22559;54.176;12.102;2023-03-03T06:08:49;0.60;99.90
36552;DHT22;22559;54.176;12.102;2023-03-03T06:11:15;0.70;99.90
36552;DHT22;22559;54.176;12.102;2023-03-03T06:13:43;0.70;99.90
36552;DHT22;22559;54.176;12.102;2023-03-03T06:16:08;0.70;99.90
36552;DHT22;22559;54.176;12.102;2023-03-03T06:18:34;0.70;99.90
36552;DHT22;22559;54.176;12.102;2023-03-03T06:20:59;0.80;99.90
36552;DHT22;22559;54.176;12.102;2023-03-03T06:23:25;0.80;99.90
36552;DHT22;22559;54.176;12.102;2023-03-03T06:25:51;0.80;99.90
36552;DHT22;22559;54.176;12.102;2023-03-03T06:28:18;0.90;99.90
36552;DHT22;22559;54.176;12.102;2023-03-03T06:30:44;0.90;99.90
36552;DHT22;22559;54.176;12.102;2023-03-03T06:33:09;0.90;99.90
36552;DHT22;22559;54.176;12.102;2023-03-03T06:35:35;0.90;99.90
36552;DHT22;22559;54.176;12.102;2023-03-03T06:38:01;0.90;99.90
36552;DHT22;22559;54.176;12.102;2023-03-03T06:40:27;0.90;99.90
36552;DHT22;22559;54.176;12.102;2023-03-03T06:42:52;1.00;99.90
36552;DHT22;22559;54.176;12.102;2023-03-03T06:45:18;0.90;99.90
36552;DHT22;22559;54.176;12.102;2023-03-03T06:47:43;0.90;99.90
36552;DHT22;22559;54.176;12.102;2023-03-03T06:50:10;0.80;99.90
36552;DHT22;22559;54.176;12.102;2023-03-03T06:52:36;0.80;99.90
36552;DHT22;22559;54.176;12.102;2023-03-03T06:55:11;0.80;99.90
36552;DHT22;22559;54.176;12.102;2023-03-03T06:57:37;0.80;99.90
36552;DHT22;22559;54.176;12.102;2023-03-03T07:02:40;0.90;99.90
36552;DHT22;22559;54.176;12.102;2023-03-03T07:05:13;1.00;99.90
36552;DHT22;22559;54.176;12.102;2023-03-03T07:07:39;1.10;99.90
36552;DHT22;22559;54.176;12.102;2023-03-03T07:10:23;1.10;99.90
36552;DHT22;22559;54.176;12.102;2023-03-03T07:12:48;1.20;99.90
36552;DHT22;22559;54.176;12.102;2023-03-03T07:15:33;1.30;99.90
36552;DHT22;22559;54.176;12.102;2023-03-03T07:17:59;1.30;99.90
36552;DHT22;22559;54.176;12.102;2023-03-03T07:20:40;1.30;99.90
36552;DHT22;22559;54.176;12.102;2023-03-03T07:23:29;1.30;99.90
36552;DHT22;22559;54.176;12.102;2023-03-03T07:25:56;1.40;99.90
36552;DHT22;22559;54.176;12.102;2023-03-03T07:28:26;1.50;99.90
36552;DHT22;22559;54.176;12.102;2023-03-03T07:30:54;1.50;99.90
36552;DHT22;22559;54.176;12.102;2023-03-03T07:33:28;1.60;99.90
36552;DHT22;22559;54.176;12.102;2023-03-03T07:36:01;1.70;99.90
36552;DHT22;22559;54.176;12.102;2023-03-03T07:38:34;1.80;99.90
36552;DHT22;22559;54.176;12.102;2023-03-03T07:41:04;1.80;99.90
36552;DHT22;22559;54.176;12.102;2023-03-03T07:43:40;2.00;99.90
36552;DHT22;22559;54.176;12.102;2023-03-03T07:46:16;2.10;99.90
36552;DHT22;22559;54.176;12.102;2023-03-03T07:48:44;2.10;99.90
36552;DHT22;22559;54.176;12.102;2023-03-03T07:54:14;2.30;99.90
36552;DHT22;22559;54.176;12.102;2023-03-03T07:56:37;2.40;99.90
36552;DHT22;22559;54.176;12.102;2023-03-03T07:59:24;2.40;99.90
36552;DHT22;22559;54.176;12.102;2023-03-03T08:01:52;2.50;99.90
36552;DHT22;22559;54.176;12.102;2023-03-03T08:04:22;2.50;99.90
36552;DHT22;22559;54.176;12.102;2023-03-03T08:06:51;2.70;99.90
36552;DHT22;22559;54.176;12.102;2023-03-03T08:12:01;2.70;99.90
36552;DHT22;22559;54.176;12.102;2023-03-03T08:14:36;2.90;99.90
36552;DHT22;22559;54.176;12.102;2023-03-03T08:17:34;3.20;99.90
36552;DHT22;22559;54.176;12.102;2023-03-03T08:19:53;3.30;99.90
36552;DHT22;22559;54.176;12.102;2023-03-03T08:22:39;3.50;99.90
36552;DHT22;22559;54.176;12.102;2023-03-03T08:25:07;3.60;99.90
36552;DHT22;22559;54.176;12.102;2023-03-03T08:27:33;3.90;99.90
36552;DHT22;22559;54.176;12.102;2023-03-03T08:29:58;4.00;99.90
36552;DHT22;22559;54.176;12.102;2023-03-03T08:32:24;4.10;99.90
36552;DHT22;22559;54.176;12.102;2023-03-03T08:34:49;4.20;99.90
36552;DHT22;22559;54.176;12.102;2023-03-03T08:37:15;4.20;99.90
36552;DHT22;22559;54.176;12.102;2023-03-03T08:39:40;4.20;99.90
36552;DHT22;22559;54.176;12.102;2023-03-03T08:42:07;4.20;99.90
36552;DHT22;22559;54.176;12.102;2023-03-03T08:44:33;4.30;99.90
36552;DHT22;22559;54.176;12.102;2023-03-03T08:46:58;4.20;99.90
36552;DHT22;22559;54.176;12.102;2023-03-03T08:49:24;4.20;99.90
36552;DHT22;22559;54.176;12.102;2023-03-03T08:51:50;4.20;99.90
36552;DHT22;22559;54.176;12.102;2023-03-03T08:54:17;4.30;99.90
36552;DHT22;22559;54.176;12.102;2023-03-03T08:56:42;4.50;99.90
36552;DHT22;22559;54.176;12.102;2023-03-03T08:59:08;4.60;99.90
36552;DHT22;22559;54.176;12.102;2023-03-03T09:01:34;4.80;99.90
36552;DHT22;22559;54.176;12.102;2023-03-03T09:04:00;4.90;99.90
36552;DHT22;22559;54.176;12.102;2023-03-03T09:06:26;5.00;99.90
36552;DHT22;22559;54.176;12.102;2023-03-03T09:08:52;5.10;99.90
36552;DHT22;22559;54.176;12.102;2023-03-03T09:11:23;5.10;99.90
36552;DHT22;22559;54.176;12.102;2023-03-03T09:13:49;5.30;99.90
36552;DHT22;22559;54.176;12.102;2023-03-03T09:16:17;5.60;99.90
36552;DHT22;22559;54.176;12.102;2023-03-03T09:18:45;5.60;99.90
36552;DHT22;22559;54.176;12.102;2023-03-03T09:21:25;5.70;99.90
36552;DHT22;22559;54.176;12.102;2023-03-03T09:23:57;5.60;99.90
36552;DHT22;22559;54.176;12.102;2023-03-03T09:26:30;5.60;99.90
36552;DHT22;22559;54.176;12.102;2023-03-03T09:34:41;5.80;99.90
36552;DHT22;22559;54.176;12.102;2023-03-03T09:37:26;5.90;99.90
36552;DHT22;22559;54.176;12.102;2023-03-03T09:39:56;5.90;99.90
36552;DHT22;22559;54.176;12.102;2023-03-03T09:42:34;5.70;99.90
36552;DHT22;22559;54.176;12.102;2023-03-03T09:45:32;5.70;99.90
36552;DHT22;22559;54.176;12.102;2023-03-03T09:51:05;6.10;99.90
36552;DHT22;22559;54.176;12.102;2023-03-03T09:56:34;6.10;99.90
36552;DHT22;22559;54.176;12.102;2023-03-03T10:02:30;6.60;99.90
36552;DHT22;22559;54.176;12.102;2023-03-03T10:05:19;6.90;99.90
36552;DHT22;22559;54.176;12.102;2023-03-03T10:10:59;6.60;99.90
36552;DHT22;22559;54.176;12.102;2023-03-03T10:13:50;6.40;99.90
36552;DHT22;22559;54.176;12.102;2023-03-03T10:22:19;5.80;99.90
36552;DHT22;22559;54.176;12.102;2023-03-03T10:39:10;4.90;99.90
36552;DHT22;22559;54.176;12.102;2023-03-03T10:41:54;4.80;99.90
36552;DHT22;22559;54.176;12.102;2023-03-03T10:47:23;4.80;99.90
36552;DHT22;22559;54.176;12.102;2023-03-03T10:50:13;4.70;99.90
36552;DHT22;22559;54.176;12.102;2023-03-03T10:52:54;4.60;99.90
36552;DHT22;22559;54.176;12.102;2023-03-03T10:55:35;4.50;99.90
36552;DHT22;22559;54.176;12.102;2023-03-03T11:09:02;4.10;99.90
36552;DHT22;22559;54.176;12.102;2023-03-03T11:14:46;4.10;99.90
36552;DHT22;22559;54.176;12.102;2023-03-03T11:25:29;4.00;99.90
36552;DHT22;22559;54.176;12.102;2023-03-03T11:31:08;4.00;99.90
36552;DHT22;22559;54.176;12.102;2023-03-03T11:36:27;4.00;99.90
36552;DHT22;22559;54.176;12.102;2023-03-03T11:39:02;4.00;99.90
36552;DHT22;22559;54.176;12.102;2023-03-03T11:49:55;3.90;99.90
36552;DHT22;22559;54.176;12.102;2023-03-03T11:55:32;3.90;99.90
36552;DHT22;22559;54.176;12.102;2023-03-03T12:25:31;3.60;99.90
36552;DHT22;22559;54.176;12.102;2023-03-03T12:41:41;3.60;99.90
36552;DHT22;22559;54.176;12.102;2023-03-03T12:50:21;3.90;99.90
36552;DHT22;22559;54.176;12.102;2023-03-03T12:55:09;3.90;99.90
36552;DHT22;22559;54.176;12.102;2023-03-03T13:00:56;3.80;99.90
36552;DHT22;22559;54.176;12.102;2023-03-03T13:06:13;4.00;99.90
36552;DHT22;22559;54.176;12.102;2023-03-03T13:14:51;4.00;99.90
36552;DHT22;22559;54.176;12.102;2023-03-03T13:17:33;4.20;99.90
36552;DHT22;22559;54.176;12.102;2023-03-03T13:22:50;4.40;99.90
36552;DHT22;22559;54.176;12.102;2023-03-03T13:28:06;4.60;99.90
36552;DHT22;22559;54.176;12.102;2023-03-03T13:30:37;4.60;99.90
36552;DHT22;22559;54.176;12.102;2023-03-03T13:33:14;4.70;99.90
36552;DHT22;22559;54.176;12.102;2023-03-03T13:35:45;4.70;99.90
36552;DHT22;22559;54.176;12.102;2023-03-03T13:38:35;4.80;99.90
36552;DHT22;22559;54.176;12.102;2023-03-03T13:41:37;4.80;99.90
36552;DHT22;22559;54.176;12.102;2023-03-03T13:44:01;4.80;99.90
36552;DHT22;22559;54.176;12.102;2023-03-03T13:52:11;4.90;99.90
36552;DHT22;22559;54.176;12.102;2023-03-03T14:06:13;5.10;99.90
36552;DHT22;22559;54.176;12.102;2023-03-03T14:19:43;5.30;99.90
36552;DHT22;22559;54.176;12.102;2023-03-03T14:27:26;5.30;99.90
36552;DHT22;22559;54.176;12.102;2023-03-03T14:29:52;5.30;99.90
36552;DHT22;22559;54.176;12.102;2023-03-03T14:32:26;5.30;99.90
36552;DHT22;22559;54.176;12.102;2023-03-03T14:35:00;5.30;99.90
36552;DHT22;22559;54.176;12.102;2023-03-03T14:37:45;5.30;99.90
36552;DHT22;22559;54.176;12.102;2023-03-03T14:40:21;5.30;99.90
36552;DHT22;22559;54.176;12.102;2023-03-03T14:42:55;5.30;99.90
36552;DHT22;22559;54.176;12.102;2023-03-03T14:47:53;5.30;99.90
36552;DHT22;22559;54.176;12.102;2023-03-03T14:50:35;5.30;99.90
36552;DHT22;22559;54.176;12.102;2023-03-03T14:53:13;5.30;99.90
36552;DHT22;22559;54.176;12.102;2023-03-03T14:55:41;5.30;99.90
36552;DHT22;22559;54.176;12.102;2023-03-03T15:03:48;5.40;99.90
36552;DHT22;22559;54.176;12.102;2023-03-03T15:08:55;5.40;99.90
36552;DHT22;22559;54.176;12.102;2023-03-03T15:11:31;5.40;99.90
36552;DHT22;22559;54.176;12.102;2023-03-03T15:14:14;5.50;99.90
36552;DHT22;22559;54.176;12.102;2023-03-03T15:16:40;5.50;99.90
36552;DHT22;22559;54.176;12.102;2023-03-03T15:22:03;5.50;99.90
36552;DHT22;22559;54.176;12.102;2023-03-03T15:24:39;5.50;99.90
36552;DHT22;22559;54.176;12.102;2023-03-03T15:30:28;5.60;99.90
36552;DHT22;22559;54.176;12.102;2023-03-03T15:33:04;5.60;99.90
36552;DHT22;22559;54.176;12.102;2023-03-03T15:41:36;5.60;99.90
36552;DHT22;22559;54.176;12.102;2023-03-03T15:47:02;5.50;99.90
36552;DHT22;22559;54.176;12.102;2023-03-03T15:52:41;5.50;99.90
36552;DHT22;22559;54.176;12.102;2023-03-03T16:03:26;5.50;99.90
36552;DHT22;22559;54.176;12.102;2023-03-03T16:05:54;5.60;99.90
36552;DHT22;22559;54.176;12.102;2023-03-03T16:08:36;5.60;99.90
36552;DHT22;22559;54.176;12.102;2023-03-03T16:11:17;5.70;99.90
36552;DHT22;22559;54.176;12.102;2023-03-03T16:19:37;5.60;99.90
36552;DHT22;22559;54.176;12.102;2023-03-03T16:23:07;5.40;99.90
36552;DHT22;22559;54.176;12.102;2023-03-03T16:25:30;5.40;99.90
36552;DHT22;22559;54.176;12.102;2023-03-03T16:28:18;5.30;99.90
36552;DHT22;22559;54.176;12.102;2023-03-03T16:31:10;5.30;99.90
36552;DHT22;22559;54.176;12.102;2023-03-03T16:36:17;5.20;99.90
36552;DHT22;22559;54.176;12.102;2023-03-03T16:42:06;5.10;99.90
36552;DHT22;22559;54.176;12.102;2023-03-03T16:47:18;5.00;99.90
36552;DHT22;22559;54.176;12.102;2023-03-03T16:52:19;4.90;99.90
36552;DHT22;22559;54.176;12.102;2023-03-03T16:54:59;4.90;99.90
36552;DHT22;22559;54.176;12.102;2023-03-03T17:00:45;4.80;99.90
36552;DHT22;22559;54.176;12.102;2023-03-03T17:03:58;4.80;99.90
36552;DHT22;22559;54.176;12.102;2023-03-03T17:33:32;4.60;99.90
36552;DHT22;22559;54.176;12.102;2023-03-03T17:39:33;4.60;99.90
36552;DHT22;22559;54.176;12.102;2023-03-03T17:45:12;4.70;99.90
36552;DHT22;22559;54.176;12.102;2023-03-03T17:50:46;4.60;99.90
36552;DHT22;22559;54.176;12.102;2023-03-03T18:01:38;4.50;99.90
36552;DHT22;22559;54.176;12.102;2023-03-03T18:15:11;4.50;99.90
36552;DHT22;22559;54.176;12.102;2023-03-03T18:23:34;4.50;99.90
36552;DHT22;22559;54.176;12.102;2023-03-03T18:39:43;4.60;99.90
36552;DHT22;22559;54.176;12.102;2023-03-03T18:44:45;4.50;99.90
36552;DHT22;22559;54.176;12.102;2023-03-03T18:47:12;4.50;99.90
36552;DHT22;22559;54.176;12.102;2023-03-03T18:50:31;4.60;99.90
36552;DHT22;22559;54.176;12.102;2023-03-03T18:52:37;4.60;99.90
36552;DHT22;22559;54.176;12.102;2023-03-03T18:57:35;4.50;99.90
36552;DHT22;22559;54.176;12.102;2023-03-03T19:00:15;4.50;99.90
36552;DHT22;22559;54.176;12.102;2023-03-03T19:02:54;4.50;99.90
36552;DHT22;22559;54.176;12.102;2023-03-03T19:08:20;4.40;99.90
36552;DHT22;22559;54.176;12.102;2023-03-03T19:13:37;4.40;99.90
36552;DHT22;22559;54.176;12.102;2023-03-03T19:18:59;4.40;99.90
36552;DHT22;22559;54.176;12.102;2023-03-03T19:21:34;4.40;99.90
36552;DHT22;22559;54.176;12.102;2023-03-03T19:37:55;4.40;99.90
36552;DHT22;22559;54.176;12.102;2023-03-03T19:43:41;4.40;99.90
36552;DHT22;22559;54.176;12.102;2023-03-03T19:55:14;4.30;99.90
36552;DHT22;22559;54.176;12.102;2023-03-03T19:58:03;4.40;99.90
36552;DHT22;22559;54.176;12.102;2023-03-03T20:00:50;4.40;99.90
36552;DHT22;22559;54.176;12.102;2023-03-03T20:14:41;4.30;99.90
36552;DHT22;22559;54.176;12.102;2023-03-03T20:28:42;4.40;99.90
36552;DHT22;22559;54.176;12.102;2023-03-03T20:37:44;4.40;99.90
36552;DHT22;22559;54.176;12.102;2023-03-03T20:51:09;4.50;99.90
36552;DHT22;22559;54.176;12.102;2023-03-03T20:53:45;4.50;99.90
36552;DHT22;22559;54.176;12.102;2023-03-03T20:56:26;4.50;99.90
36552;DHT22;22559;54.176;12.102;2023-03-03T20:59:21;4.50;99.90
36552;DHT22;22559;54.176;12.102;2023-03-03T21:02:22;4.50;99.90
36552;DHT22;22559;54.176;12.102;2023-03-03T21:07:34;4.70;99.90
36552;DHT22;22559;54.176;12.102;2023-03-03T21:10:28;4.70;99.90
36552;DHT22;22559;54.176;12.102;2023-03-03T21:12:56;4.70;99.90
36552;DHT22;22559;54.176;12.102;2023-03-03T21:15:26;4.70;99.90
36552;DHT22;22559;54.176;12.102;2023-03-03T21:17:53;4.70;99.90
36552;DHT22;22559;54.176;12.102;2023-03-03T21:22:50;4.60;99.90
36552;DHT22;22559;54.176;12.102;2023-03-03T21:28:25;4.50;99.90
36552;DHT22;22559;54.176;12.102;2023-03-03T21:33:59;4.50;99.90
36552;DHT22;22559;54.176;12.102;2023-03-03T21:38:57;4.50;99.90
36552;DHT22;22559;54.176;12.102;2023-03-03T21:41:26;4.50;99.90
36552;DHT22;22559;54.176;12.102;2023-03-03T21:43:52;4.50;99.90
36552;DHT22;22559;54.176;12.102;2023-03-03T21:46:23;4.50;99.90
36552;DHT22;22559;54.176;12.102;2023-03-03T21:48:50;4.50;99.90
36552;DHT22;22559;54.176;12.102;2023-03-03T21:51:16;4.50;99.90
36552;DHT22;22559;54.176;12.102;2023-03-03T21:53:42;4.40;99.90
36552;DHT22;22559;54.176;12.102;2023-03-03T21:56:11;4.50;99.90
36552;DHT22;22559;54.176;12.102;2023-03-03T21:58:39;4.40;99.90
36552;DHT22;22559;54.176;12.102;2023-03-03T22:01:07;4.40;99.90
36552;DHT22;22559;54.176;12.102;2023-03-03T22:03:36;4.50;99.90
36552;DHT22;22559;54.176;12.102;2023-03-03T22:06:02;4.50;99.90
36552;DHT22;22559;54.176;12.102;2023-03-03T22:08:27;4.50;99.90
36552;DHT22;22559;54.176;12.102;2023-03-03T22:10:53;4.50;99.90
36552;DHT22;22559;54.176;12.102;2023-03-03T22:13:26;4.50;99.90
36552;DHT22;22559;54.176;12.102;2023-03-03T22:15:55;4.50;99.90
36552;DHT22;22559;54.176;12.102;2023-03-03T22:18:21;4.50;99.90
36552;DHT22;22559;54.176;12.102;2023-03-03T22:20:47;4.50;99.90
36552;DHT22;22559;54.176;12.102;2023-03-03T22:23:14;4.50;99.90
36552;DHT22;22559;54.176;12.102;2023-03-03T22:25:40;4.50;99.90
36552;DHT22;22559;54.176;12.102;2023-03-03T22:28:06;4.50;99.90
36552;DHT22;22559;54.176;12.102;2023-03-03T22:30:32;4.50;99.90
36552;DHT22;22559;54.176;12.102;2023-03-03T22:32:57;4.60;99.90
36552;DHT22;22559;54.176;12.102;2023-03-03T22:35:23;4.60;99.90
36552;DHT22;22559;54.176;12.102;2023-03-03T22:37:49;4.50;99.90
36552;DHT22;22559;54.176;12.102;2023-03-03T22:40:14;4.60;99.90
36552;DHT22;22559;54.176;12.102;2023-03-03T22:42:40;4.50;99.90
36552;DHT22;22559;54.176;12.102;2023-03-03T22:45:06;4.50;99.90
36552;DHT22;22559;54.176;12.102;2023-03-03T22:47:34;4.50;99.90
36552;DHT22;22559;54.176;12.102;2023-03-03T22:50:00;4.50;99.90
36552;DHT22;22559;54.176;12.102;2023-03-03T22:52:25;4.50;99.90
36552;DHT22;22559;54.176;12.102;2023-03-03T22:54:51;4.50;99.90
36552;DHT22;22559;54.176;12.102;2023-03-03T22:57:17;4.40;99.90
36552;DHT22;22559;54.176;12.102;2023-03-03T22:59:42;4.50;99.90
36552;DHT22;22559;54.176;12.102;2023-03-03T23:02:08;4.40;99.90
36552;DHT22;22559;54.176;12.102;2023-03-03T23:04:33;4.40;99.90
36552;DHT22;22559;54.176;12.102;2023-03-03T23:07:00;4.40;99.90
36552;DHT22;22559;54.176;12.102;2023-03-03T23:09:25;4.40;99.90
36552;DHT22;22559;54.176;12.102;2023-03-03T23:11:51;4.40;99.90